PHL weather

Public forecast

Using degrees Fahrenheit for public forecast. Weather courtesy of forecast.io.

Current aviation weather report (METAR) for Philadelphia International Airport

Retrieved 2020/08/13 06:54 UTC (60 minutes ago):

KPHL 130654Z 17003KT 10SM BKN140 OVC180 25/23 A3006 RMK AO2 SLP177 T02500228

Aviation forecast (TAF) for Philadelphia International Airport

Retrieved 2020/08/13 06:30 UTC (1 hour ago):

TAF KPHL 130521Z 1306/1412 VRB03KT P6SM SCT025 TEMPO 1309/1312 3SM BR OVC008 FM131200 VRB03KT P6SM BKN025 TEMPO 1312/1316 3SM SHRA BR OVC008 FM131600 21006KT P6SM BKN035 FM132000 VRB03KT P6SM VCTS BKN035CB FM140000 15004KT P6SM SCT045 FM140600 04006KT P6SM BKN025